Time;durP1;ratioP1;P1;durP2;ratioP2;P2;SDS_P1;SDS_P2;PMS_P1;PMS_P2;Temp;Humidity;BMP_temperature;BMP_pressure;BME280_temperature;BME280_humidity;BME280_pressure;Samples;Min_cycle;Max_cycle;Signal;HPM_P1;HPM_P2
2022/09/02 00:00:59;;;;;;;;;6.25;6.25;;;;;25.26;32.36;100923.63;5021475;28;45228;-80
2022/09/02 00:03:33;;;;;;;;;6.75;6.75;;;;;25.27;32.39;100924.47;5021189;28;48045;-81
2022/09/02 00:06:00;;;;;;;;;7.00;7.00;;;;;25.24;32.75;100922.84;5022398;28;45348;-81
2022/09/02 00:08:26;;;;;;;;;7.50;6.50;;;;;25.19;32.78;100916.88;5022935;28;45170;-80
2022/09/02 00:10:52;;;;;;;;;6.50;5.50;;;;;25.15;33.12;100922.50;5020879;28;45579;-80
2022/09/02 00:13:19;;;;;;;;;7.50;7.50;;;;;25.11;33.09;100916.44;5021002;28;47515;-80
2022/09/02 00:15:47;;;;;;;;;7.00;7.00;;;;;25.11;33.29;100915.59;5020601;28;45498;-80
2022/09/02 00:18:13;;;;;;;;;8.75;8.25;;;;;25.06;33.10;100908.63;5022412;28;45281;-81
2022/09/02 00:20:41;;;;;;;;;9.00;9.00;;;;;25.08;33.48;100911.25;5022024;28;45438;-80
2022/09/02 00:23:07;;;;;;;;;5.00;5.00;;;;;25.05;33.45;100904.22;5020515;28;46373;-81
2022/09/02 00:25:34;;;;;;;;;7.25;7.25;;;;;25.05;33.28;100900.66;5021786;28;45479;-80
2022/09/02 00:28:00;;;;;;;;;7.00;7.00;;;;;25.04;33.34;100905.16;5020824;28;45381;-80
2022/09/02 00:30:25;;;;;;;;;8.75;8.75;;;;;25.01;33.50;100904.50;5022035;28;45557;-80
2022/09/02 00:32:50;;;;;;;;;9.00;7.75;;;;;25.01;33.41;100902.66;5022364;28;45381;-80
2022/09/02 00:35:16;;;;;;;;;9.75;9.75;;;;;25.01;33.43;100891.03;5021979;28;45408;-80
2022/09/02 00:37:41;;;;;;;;;8.00;7.00;;;;;25.00;33.79;100894.69;5022842;28;45385;-80
2022/09/02 00:40:08;;;;;;;;;9.25;9.25;;;;;24.97;33.67;100894.88;5020965;28;45975;-80
2022/09/02 00:42:34;;;;;;;;;10.00;8.50;;;;;24.93;34.02;100888.81;5020729;28;48422;-80
2022/09/02 00:45:01;;;;;;;;;8.25;8.25;;;;;24.89;34.13;100889.97;5020836;28;45900;-80
2022/09/02 00:47:30;;;;;;;;;7.75;7.75;;;;;24.89;33.70;100889.97;5020689;28;45252;-80
2022/09/02 00:49:57;;;;;;;;;7.00;7.00;;;;;24.90;34.12;100888.13;5020937;28;45625;-80
2022/09/02 00:52:30;;;;;;;;;7.25;7.00;;;;;24.91;34.28;100888.03;5020771;28;46310;-80
2022/09/02 00:55:26;;;;;;;;;6.50;6.50;;;;;24.91;34.40;100879.09;5013785;28;45529;-80
2022/09/02 00:57:58;;;;;;;;;10.25;7.50;;;;;24.91;34.17;100888.03;5026432;28;45245;-80
2022/09/02 01:00:27;;;;;;;;;7.25;7.25;;;;;24.87;34.59;100883.81;5023857;28;45377;-80
2022/09/02 01:03:01;;;;;;;;;8.75;8.75;;;;;24.83;34.37;100884.94;5022782;28;45236;-80
2022/09/02 01:05:30;;;;;;;;;8.25;8.25;;;;;24.84;34.44;100884.84;5020972;28;45445;-79
2022/09/02 01:07:57;;;;;;;;;7.50;6.25;;;;;24.81;34.51;100882.34;5023553;28;45169;-81
2022/09/02 01:10:31;;;;;;;;;9.75;8.25;;;;;24.81;34.46;100886.88;5010613;28;45534;-80
2022/09/02 01:13:00;;;;;;;;;7.50;7.25;;;;;24.82;34.35;100881.38;5001396;28;46210;-80
2022/09/02 01:15:26;;;;;;;;;8.00;8.00;;;;;24.81;34.47;100881.50;5001552;28;45431;-80
2022/09/02 01:17:52;;;;;;;;;10.00;8.75;;;;;24.79;34.63;100878.88;5002219;28;45538;-80
2022/09/02 01:20:21;;;;;;;;;9.00;9.00;;;;;24.81;35.00;100873.41;5001695;28;45246;-80
2022/09/02 01:22:48;;;;;;;;;9.50;9.50;;;;;24.76;34.57;100871.00;5000103;28;47139;-80
2022/09/02 01:25:18;;;;;;;;;9.00;8.00;;;;;24.74;35.11;100861.28;5001528;28;45430;-80
2022/09/02 01:27:43;;;;;;;;;5.75;5.75;;;;;24.71;35.22;100870.41;5000192;28;45262;-80
2022/09/02 01:30:14;;;;;;;;;8.25;8.25;;;;;24.72;35.37;100880.19;5001376;28;45233;-80
2022/09/02 01:32:39;;;;;;;;;7.00;7.00;;;;;24.70;35.30;100873.19;5000162;28;47102;-81
2022/09/02 01:35:05;;;;;;;;;9.00;9.00;;;;;24.72;35.43;100882.03;5001401;28;45446;-80
2022/09/02 01:37:32;;;;;;;;;8.50;8.50;;;;;24.70;35.44;100870.47;5000478;28;45467;-80
2022/09/02 01:39:58;;;;;;;;;9.00;8.50;;;;;24.70;35.30;100871.38;5001936;28;45233;-81
2022/09/02 01:42:24;;;;;;;;;7.00;7.00;;;;;24.68;35.13;100873.28;5001231;28;47133;-80
2022/09/02 01:44:50;;;;;;;;;8.25;7.25;;;;;24.68;35.73;100870.59;5001089;28;45423;-80
2022/09/02 01:47:19;;;;;;;;;7.75;7.75;;;;;24.69;35.55;100874.16;5009366;28;45474;-80
2022/09/02 01:49:45;;;;;;;;;7.75;7.25;;;;;24.69;35.18;100872.31;5020943;28;45452;-80
2022/09/02 01:52:11;;;;;;;;;8.00;8.00;;;;;24.67;35.69;100868.84;5019459;28;47021;-80
2022/09/02 01:54:37;;;;;;;;;9.50;9.50;;;;;24.68;35.40;100877.81;5020630;28;45417;-80
2022/09/02 01:57:02;;;;;;;;;7.75;7.75;;;;;24.68;35.88;100875.13;5019178;28;45378;-80
2022/09/02 01:59:28;;;;;;;;;11.00;9.50;;;;;24.69;35.42;100895.69;5020938;28;45556;-80
2022/09/02 02:01:54;;;;;;;;;8.00;8.00;;;;;24.71;35.56;100940.41;5019579;28;48460;-80
2022/09/02 02:04:23;;;;;;;;;9.50;8.25;;;;;24.61;35.50;100956.22;5019041;28;45324;-80
2022/09/02 02:06:49;;;;;;;;;10.75;10.00;;;;;24.51;36.11;100901.22;5020487;28;45487;-80
2022/09/02 02:09:15;;;;;;;;;9.75;9.75;;;;;24.46;35.48;100891.66;5018851;28;45446;-80
2022/09/02 02:11:42;;;;;;;;;9.25;9.25;;;;;24.38;36.39;100959.41;5019011;28;46099;-80
2022/09/02 02:14:08;;;;;;;;;8.00;8.00;;;;;24.28;37.00;100918.69;5019151;28;45283;-80
2022/09/02 02:16:33;;;;;;;;;10.00;9.00;;;;;24.20;37.57;100940.66;5019071;28;45229;-80
2022/09/02 02:18:59;;;;;;;;;7.75;7.75;;;;;24.15;38.36;100936.50;5020317;28;45585;-80
2022/09/02 02:21:24;;;;;;;;;9.75;8.75;;;;;24.06;38.95;100929.81;5020406;28;45282;-80
2022/09/02 02:23:50;;;;;;;;;9.00;8.75;;;;;23.98;39.15;100913.25;5019129;28;45285;-80
2022/09/02 02:26:16;;;;;;;;;10.00;10.00;;;;;23.94;39.95;100922.44;5020561;28;45371;-80
2022/09/02 02:28:41;;;;;;;;;9.25;9.25;;;;;23.91;40.80;100928.00;5020180;28;45174;-80
2022/09/02 02:31:08;;;;;;;;;9.25;9.25;;;;;23.86;41.06;100924.69;5020369;28;45879;-80
2022/09/02 02:33:34;;;;;;;;;14.50;12.25;;;;;23.82;41.55;100931.19;5020192;28;45458;-80
2022/09/02 02:36:00;;;;;;;;;19.00;17.00;;;;;23.74;41.26;100929.81;5019265;28;45366;-80
2022/09/02 02:38:25;;;;;;;;;16.75;15.75;;;;;23.68;41.05;100931.94;5018656;28;45616;-80
2022/09/02 02:40:56;;;;;;;;;16.00;13.00;;;;;23.62;42.20;100932.28;5020224;28;46135;-80
2022/09/02 02:43:22;;;;;;;;;22.75;22.00;;;;;23.59;42.18;100924.38;5019128;28;45249;-80
2022/09/02 02:45:48;;;;;;;;;19.50;18.50;;;;;23.55;42.98;100921.88;5020365;28;45387;-80
2022/09/02 02:48:13;;;;;;;;;20.50;19.75;;;;;23.50;42.75;100925.78;5018929;28;45467;-80
2022/09/02 02:50:38;;;;;;;;;24.00;22.00;;;;;23.49;43.22;100926.69;5018746;28;47319;-80
2022/09/02 02:53:04;;;;;;;;;24.75;22.50;;;;;23.41;43.75;100928.94;5018722;28;45885;-81
2022/09/02 02:55:30;;;;;;;;;23.00;19.00;;;;;23.34;44.49;100928.44;5019662;28;45641;-80
2022/09/02 02:57:55;;;;;;;;;17.25;17.25;;;;;23.25;44.06;100927.06;5020062;28;45399;-80
2022/09/02 03:00:25;;;;;;;;;20.50;18.75;;;;;23.14;45.22;100924.09;5018675;28;45964;-81
2022/09/02 03:03:05;;;;;;;;;22.00;20.25;;;;;23.05;45.10;100920.09;5003405;28;45365;-80
2022/09/02 03:05:34;;;;;;;;;17.00;17.00;;;;;22.99;45.69;100911.47;5000326;28;45410;-80
2022/09/02 03:08:00;;;;;;;;;17.00;16.00;;;;;22.93;45.86;100909.09;4998865;28;45205;-80
2022/09/02 03:10:26;;;;;;;;;20.75;19.50;;;;;22.90;46.33;100907.44;4998536;28;46830;-80
2022/09/02 03:12:51;;;;;;;;;14.25;14.25;;;;;22.84;46.91;100897.91;4998716;28;45261;-81
2022/09/02 03:15:18;;;;;;;;;17.50;17.00;;;;;22.80;46.80;100900.81;5000342;28;45541;-81
2022/09/02 03:17:46;;;;;;;;;19.50;15.50;;;;;22.80;47.46;100898.13;5017328;28;45657;-80
2022/09/02 03:20:14;;;;;;;;;19.00;16.25;;;;;22.75;47.60;100901.06;5019827;28;46241;-80
2022/09/02 03:22:41;;;;;;;;;16.00;15.75;;;;;22.69;47.67;100887.94;5018305;28;45877;-80
2022/09/02 03:25:08;;;;;;;;;18.25;13.75;;;;;22.66;47.86;100893.47;5018361;28;45294;-81
2022/09/02 03:27:39;;;;;;;;;12.00;12.00;;;;;22.63;48.32;100893.66;5000020;28;45384;-80
2022/09/02 03:30:10;;;;;;;;;13.00;13.00;;;;;22.57;48.94;100884.09;5001709;28;46205;-80
2022/09/02 03:32:36;;;;;;;;;13.75;11.50;;;;;22.53;48.69;100885.19;5003069;28;45469;-81
2022/09/02 03:35:03;;;;;;;;;11.00;11.00;;;;;22.51;49.13;100884.41;5003119;28;45567;-81
2022/09/02 03:37:28;;;;;;;;;17.00;15.50;;;;;22.51;49.11;100900.53;5003370;28;45355;-81
2022/09/02 03:39:54;;;;;;;;;14.00;12.25;;;;;22.49;49.34;100893.50;5001706;28;48008;-80
2022/09/02 03:42:19;;;;;;;;;15.25;13.25;;;;;22.48;49.59;100881.91;5011244;28;45236;-81
2022/09/02 03:44:45;;;;;;;;;13.25;12.75;;;;;22.44;49.11;100873.13;5008383;28;45482;-81
2022/09/02 03:47:12;;;;;;;;;13.25;12.25;;;;;22.41;49.53;100875.09;5010977;28;45363;-81
2022/09/02 03:49:38;;;;;;;;;14.25;13.00;;;;;22.37;49.16;100871.72;5023197;28;45925;-80
2022/09/02 03:52:04;;;;;;;;;15.25;12.50;;;;;22.36;49.52;100867.28;5014623;28;45327;-80
2022/09/02 03:54:29;;;;;;;;;15.25;14.00;;;;;22.38;49.25;100867.22;5009881;28;45423;-80
2022/09/02 03:56:55;;;;;;;;;15.00;13.75;;;;;22.35;49.89;100870.06;5021527;28;45438;-80
2022/09/02 03:59:20;;;;;;;;;13.50;12.00;;;;;22.38;50.01;100875.25;5022669;28;46145;-80
2022/09/02 04:01:46;;;;;;;;;12.25;10.50;;;;;22.39;49.95;100866.25;5021380;28;45929;-81
2022/09/02 04:04:11;;;;;;;;;11.25;10.00;;;;;22.37;50.35;100871.72;5021412;28;45494;-80
2022/09/02 04:06:37;;;;;;;;;15.00;15.00;;;;;22.33;50.42;100866.56;5023748;28;45187;-80
2022/09/02 04:09:04;;;;;;;;;14.00;11.25;;;;;22.32;50.30;100868.41;5023273;28;46869;-81
2022/09/02 04:11:29;;;;;;;;;11.50;11.00;;;;;22.31;50.61;100860.41;5023204;28;45217;-80
2022/09/02 04:13:55;;;;;;;;;11.00;11.00;;;;;22.31;50.61;100863.09;5022602;28;45154;-81
2022/09/02 04:16:27;;;;;;;;;10.75;10.75;;;;;22.34;50.63;100870.97;5020984;28;45236;-80
2022/09/02 04:18:55;;;;;;;;;12.50;9.75;;;;;22.31;51.10;100858.59;5021022;28;47685;-80
2022/09/02 04:21:20;;;;;;;;;10.50;9.00;;;;;22.31;50.86;100860.41;5021111;28;46398;-80
2022/09/02 04:23:46;;;;;;;;;13.00;12.00;;;;;22.30;50.92;100850.63;5021075;28;45281;-81
2022/09/02 04:26:14;;;;;;;;;14.75;13.00;;;;;22.29;50.86;100848.88;5020876;28;45245;-80
2022/09/02 04:29:00;;;;;;;;;10.25;10.00;;;;;22.29;51.30;100856.94;5020622;28;46102;-80
2022/09/02 04:31:28;;;;;;;;;13.25;12.00;;;;;22.31;51.32;100855.91;5021788;28;45405;-80
2022/09/02 04:33:55;;;;;;;;;11.50;10.75;;;;;22.28;51.48;100856.06;5020906;28;45310;-80
2022/09/02 04:36:21;;;;;;;;;9.25;8.50;;;;;22.31;51.61;100855.91;5022087;28;45288;-79
2022/09/02 04:38:47;;;;;;;;;13.00;12.00;;;;;22.31;51.54;100857.72;5020895;28;46797;-80
2022/09/02 04:41:25;;;;;;;;;10.75;9.75;;;;;22.27;51.83;100840.94;5021150;28;45372;-80
2022/09/02 04:43:53;;;;;;;;;13.00;13.00;;;;;22.22;52.58;100846.53;5020563;28;45446;-80
2022/09/02 04:46:19;;;;;;;;;16.25;14.50;;;;;22.19;52.52;100857.41;5021389;28;45471;-80
2022/09/02 04:48:46;;;;;;;;;13.50;12.75;;;;;22.17;52.67;100878.03;5021519;28;46133;-80
2022/09/02 04:51:18;;;;;;;;;10.25;10.25;;;;;22.16;53.05;100879.00;5020371;28;45245;-80
2022/09/02 04:53:45;;;;;;;;;10.00;10.00;;;;;22.14;53.63;100875.50;5021661;28;45280;-80
2022/09/02 04:56:15;;;;;;;;;11.50;11.50;;;;;22.12;53.94;100871.16;5021019;28;45414;-80
2022/09/02 04:58:43;;;;;;;;;13.50;13.50;;;;;22.11;54.15;100859.59;5020230;28;47352;-80
2022/09/02 05:01:15;;;;;;;;;16.00;14.00;;;;;22.10;55.02;100851.59;5021726;28;45432;-81
2022/09/02 05:03:41;;;;;;;;;16.75;16.25;;;;;22.07;55.52;100844.56;5021747;28;45367;-81
2022/09/02 05:06:09;;;;;;;;;17.50;15.25;;;;;22.01;55.83;100836.84;5021428;28;45467;-81
2022/09/02 05:08:35;;;;;;;;;13.50;13.50;;;;;21.95;56.25;100829.97;5021340;28;45757;-81
2022/09/02 05:11:07;;;;;;;;;16.50;13.50;;;;;21.84;56.64;100821.59;5020975;28;45242;-81
2022/09/02 05:13:33;;;;;;;;;14.25;14.25;;;;;21.80;56.58;100828.91;5020229;28;45195;-81
2022/09/02 05:15:59;;;;;;;;;15.00;15.00;;;;;21.75;56.68;100835.44;5019539;28;45544;-81
2022/09/02 05:18:25;;;;;;;;;15.00;14.25;;;;;21.72;56.70;100839.13;5019832;28;46916;-81
2022/09/02 05:20:51;;;;;;;;;16.25;13.50;;;;;21.73;56.63;100840.00;5019756;28;45176;-81
2022/09/02 05:23:16;;;;;;;;;17.00;15.00;;;;;21.75;56.94;100846.16;5020031;28;45345;-81
2022/09/02 05:25:42;;;;;;;;;11.75;11.75;;;;;21.71;57.28;100836.56;5023065;28;45403;-81
2022/09/02 05:28:08;;;;;;;;;12.50;12.00;;;;;21.69;57.19;100835.75;5008037;28;47025;-81
2022/09/02 05:30:35;;;;;;;;;12.00;11.75;;;;;21.69;56.93;100833.06;4999691;28;45446;-81
2022/09/02 05:33:01;;;;;;;;;17.25;15.25;;;;;21.65;57.15;100835.03;4999902;28;45420;-81
2022/09/02 05:35:27;;;;;;;;;18.00;17.25;;;;;21.63;57.48;100842.28;5000940;28;45411;-81
2022/09/02 05:37:52;;;;;;;;;16.75;15.75;;;;;21.60;57.53;100847.78;4999729;28;46102;-81
2022/09/02 05:40:18;;;;;;;;;16.75;15.50;;;;;21.59;57.98;100844.22;4999553;28;45633;-81
2022/09/02 05:42:43;;;;;;;;;15.00;14.50;;;;;21.58;57.90;100850.53;5001278;28;45394;-81
2022/09/02 05:45:10;;;;;;;;;16.50;16.00;;;;;21.57;57.58;100842.56;5003854;28;45295;-81
2022/09/02 05:47:36;;;;;;;;;17.25;15.00;;;;;21.52;57.92;100840.13;5020723;28;46710;-80
2022/09/02 05:50:02;;;;;;;;;16.25;15.25;;;;;21.48;57.57;100830.47;5020235;28;45380;-81
2022/09/02 05:52:28;;;;;;;;;15.00;14.50;;;;;21.43;57.42;100842.34;5018761;28;45424;-81
2022/09/02 05:54:54;;;;;;;;;15.00;15.00;;;;;21.35;57.34;100835.50;5020399;28;45449;-80
2022/09/02 05:57:20;;;;;;;;;20.25;17.00;;;;;21.34;57.65;100843.63;5020160;28;45329;-81
2022/09/02 05:59:47;;;;;;;;;19.50;18.25;;;;;21.28;57.19;100830.53;5018998;28;45449;-80
2022/09/02 06:02:15;;;;;;;;;18.00;17.25;;;;;21.25;57.09;100827.97;5007539;28;45277;-81
2022/09/02 06:04:47;;;;;;;;;28.00;23.00;;;;;21.23;57.27;100832.56;4998982;28;45278;-81
2022/09/02 06:07:13;;;;;;;;;23.50;22.50;;;;;21.24;57.19;100836.97;4999319;28;47136;-81
2022/09/02 06:09:39;;;;;;;;;25.00;23.00;;;;;21.26;57.48;100845.81;5000294;28;45266;-81
2022/09/02 06:12:05;;;;;;;;;21.00;19.25;;;;;21.26;57.42;100846.66;5000437;28;45243;-81
2022/09/02 06:14:31;;;;;;;;;19.25;18.25;;;;;21.23;57.36;100837.91;4999301;28;45589;-81
2022/09/02 06:16:57;;;;;;;;;19.25;18.50;;;;;21.21;57.34;100826.41;4999343;28;48102;-81
2022/09/02 06:19:25;;;;;;;;;16.50;15.50;;;;;21.18;57.56;100829.22;5000159;28;45364;-81
2022/09/02 06:21:52;;;;;;;;;21.00;19.50;;;;;21.12;57.55;100828.56;5000897;28;45433;-81
2022/09/02 06:24:18;;;;;;;;;27.00;23.00;;;;;21.13;58.00;100840.13;5000196;28;45233;-81
2022/09/02 06:26:44;;;;;;;;;16.50;16.25;;;;;21.12;57.63;100833.91;4998519;28;47980;-81
2022/09/02 06:29:10;;;;;;;;;14.50;14.50;;;;;21.14;57.77;100840.06;5001288;28;45166;-81
2022/09/02 06:31:39;;;;;;;;;15.75;14.25;;;;;21.15;57.71;100839.13;5001773;28;45166;-81
2022/09/02 06:34:06;;;;;;;;;13.75;13.75;;;;;21.14;57.37;100845.44;5000693;28;45567;-81
2022/09/02 06:36:35;;;;;;;;;14.25;10.75;;;;;21.12;57.64;100841.09;4998879;28;46479;-81
2022/09/02 06:39:01;;;;;;;;;12.75;11.25;;;;;21.09;57.57;100842.09;4999301;28;45301;-80
2022/09/02 06:41:29;;;;;;;;;17.00;16.50;;;;;21.13;57.21;100851.72;4999850;28;45305;-81
2022/09/02 06:43:56;;;;;;;;;16.50;14.25;;;;;21.12;57.18;100847.31;5000306;28;45450;-81
2022/09/02 06:46:26;;;;;;;;;16.75;14.50;;;;;21.23;57.57;100856.66;4999201;28;47680;-81
2022/09/02 06:48:52;;;;;;;;;15.50;15.25;;;;;21.28;57.47;100844.78;5019701;28;45237;-81
2022/09/02 06:51:26;;;;;;;;;17.50;16.50;;;;;21.37;57.25;100846.16;5019749;28;45462;-80
2022/09/02 06:53:52;;;;;;;;;13.75;13.00;;;;;21.45;57.14;100844.03;5018018;28;45198;-81
2022/09/02 06:56:18;;;;;;;;;15.50;15.50;;;;;21.53;56.76;100844.53;5017723;28;46937;-81
2022/09/02 06:58:44;;;;;;;;;16.00;14.50;;;;;21.57;56.52;100835.41;5019720;28;45450;-81
2022/09/02 07:01:17;;;;;;;;;14.00;12.75;;;;;21.59;56.44;100822.78;5018210;28;45359;-81
2022/09/02 07:06:26;;;;;;;;;14.75;13.75;;;;;21.58;55.53;100814.84;5027347;28;45249;-81
2022/09/02 07:08:52;;;;;;;;;15.75;15.75;;;;;21.61;55.52;100821.84;5012052;28;45427;-81
2022/09/02 07:11:21;;;;;;;;;15.25;13.75;;;;;21.61;55.53;100830.75;5006146;28;45537;-81
2022/09/02 07:13:47;;;;;;;;;13.00;13.00;;;;;21.69;55.12;100839.28;5004565;28;45878;-81
2022/09/02 07:16:13;;;;;;;;;15.50;14.50;;;;;21.67;55.06;100834.94;5004357;28;48058;-81
2022/09/02 07:18:40;;;;;;;;;11.75;11.75;;;;;21.68;55.28;100832.22;5005681;28;45266;-81
2022/09/02 07:21:08;;;;;;;;;14.00;12.00;;;;;21.73;55.49;100832.84;5004656;28;45238;-81
2022/09/02 07:23:34;;;;;;;;;11.25;10.75;;;;;21.79;55.29;100831.69;5006748;28;45371;-81
2022/09/02 07:25:59;;;;;;;;;13.25;12.00;;;;;21.85;55.21;100827.84;5026608;28;46149;-80
2022/09/02 07:28:26;;;;;;;;;14.75;13.50;;;;;21.92;54.91;100829.25;5014277;28;45245;-80
2022/09/02 07:30:54;;;;;;;;;16.25;14.50;;;;;21.93;54.84;100820.28;5006368;28;45327;-80
2022/09/02 07:33:21;;;;;;;;;14.25;12.50;;;;;21.94;54.79;100817.50;5007370;28;45374;-81
2022/09/02 07:35:46;;;;;;;;;15.75;14.25;;;;;22.03;54.78;100811.69;5007781;28;46503;-81
2022/09/02 07:38:12;;;;;;;;;14.75;12.75;;;;;22.09;54.83;100817.69;5020622;28;45190;-81
2022/09/02 07:40:40;;;;;;;;;13.50;12.50;;;;;22.12;54.47;100825.59;5008403;28;45407;-81
2022/09/02 07:43:07;;;;;;;;;14.00;13.25;;;;;22.15;54.76;100822.75;5007825;28;44812;-81
2022/09/02 07:45:34;;;;;;;;;11.25;11.00;;;;;22.22;54.47;100833.13;5015028;28;46143;-81
2022/09/02 07:48:00;;;;;;;;;17.00;15.50;;;;;22.28;54.55;100825.69;5027291;28;45224;-81
2022/09/02 07:50:26;;;;;;;;;14.50;14.25;;;;;22.33;54.29;100839.75;5024805;28;45225;-81
2022/09/02 07:52:54;;;;;;;;;17.75;16.75;;;;;22.29;53.94;100836.34;5025272;28;45267;-81
2022/09/02 07:55:20;;;;;;;;;17.00;15.00;;;;;22.20;54.25;100834.13;5023498;28;46449;-81
2022/09/02 07:57:47;;;;;;;;;16.00;14.75;;;;;22.18;54.08;100847.59;5024161;28;45508;-81
2022/09/02 08:00:15;;;;;;;;;14.75;14.25;;;;;22.06;54.11;100845.53;5005502;28;45430;-81
2022/09/02 08:02:42;;;;;;;;;15.50;13.00;;;;;21.98;54.72;100850.41;5021235;28;45275;-81
2022/09/02 08:05:07;;;;;;;;;16.00;15.75;;;;;21.91;54.57;100846.28;5017599;28;46862;-81
2022/09/02 08:07:33;;;;;;;;;12.75;12.50;;;;;21.86;54.66;100849.19;5019070;28;45490;-82
2022/09/02 08:09:59;;;;;;;;;15.00;14.00;;;;;21.84;54.44;100852.88;5007211;28;45308;-82
2022/09/02 08:12:26;;;;;;;;;13.00;12.25;;;;;21.85;54.23;100868.03;5006943;28;45229;-82
2022/09/02 08:14:52;;;;;;;;;15.75;14.75;;;;;21.83;54.10;100869.91;5004229;28;48279;-81
2022/09/02 08:17:18;;;;;;;;;14.50;13.00;;;;;21.84;54.26;100868.97;5000893;28;45435;-82
2022/09/02 08:19:44;;;;;;;;;10.50;10.50;;;;;21.78;53.75;100867.44;5002400;28;45297;-82
2022/09/02 08:22:09;;;;;;;;;10.25;9.25;;;;;21.76;53.50;100898.84;5001725;28;45306;-80
2022/09/02 08:24:34;;;;;;;;;11.50;11.25;;;;;21.74;53.50;100924.84;5002048;28;45897;-81
2022/09/02 08:27:00;;;;;;;;;15.75;14.50;;;;;21.73;53.21;100939.16;5004754;28;45249;-81
2022/09/02 08:29:26;;;;;;;;;13.25;13.00;;;;;21.68;53.32;100934.03;5016010;28;45240;-82
2022/09/02 08:31:51;;;;;;;;;13.25;13.00;;;;;21.68;53.60;100939.41;5003047;28;45268;-81
2022/09/02 08:34:17;;;;;;;;;15.50;15.50;;;;;21.66;53.63;100935.06;5001640;28;46831;-82
2022/09/02 08:36:43;;;;;;;;;18.75;14.25;;;;;21.67;53.51;100936.78;5015600;28;45807;-82
2022/09/02 08:39:09;;;;;;;;;18.25;15.25;;;;;21.67;53.83;100939.47;5013877;28;45445;-82
2022/09/02 08:41:42;;;;;;;;;15.00;14.50;;;;;21.63;53.92;100943.25;4985541;28;45505;-79
2022/09/02 08:44:11;;;;;;;;;15.00;14.75;;;;;21.65;53.96;100949.38;5011468;28;47135;-81
2022/09/02 08:46:36;;;;;;;;;13.00;12.75;;;;;21.60;54.05;100936.22;5003690;28;45552;-81
2022/09/02 08:49:21;;;;;;;;;16.75;14.00;;;;;21.62;54.00;100947.69;5020288;28;45426;-81
2022/09/02 08:51:50;;;;;;;;;16.75;16.00;;;;;21.57;54.29;100939.91;5022525;28;45345;-81
2022/09/02 08:54:22;;;;;;;;;20.25;16.75;;;;;21.62;54.81;100936.13;5019985;28;47160;-82
2022/09/02 08:56:50;;;;;;;;;15.00;15.00;;;;;21.71;54.43;100938.38;5006302;28;45478;-82
2022/09/02 08:59:20;;;;;;;;;15.50;15.50;;;;;21.77;54.34;100943.44;5020635;28;45337;-82
2022/09/02 09:02:20;;;;;;;;;17.75;14.50;;;;;21.82;53.94;100943.25;5000744;28;45416;-81
2022/09/02 09:05:00;;;;;;;;;13.25;12.00;;;;;21.92;54.57;100933.78;5002184;28;45651;-81
2022/09/02 09:07:48;;;;;;;;;18.25;16.25;;;;;22.02;54.97;100925.25;5001321;28;45462;-82
2022/09/02 09:10:35;;;;;;;;;15.75;15.50;;;;;22.18;54.27;100937.91;5002220;28;45234;-81
2022/09/02 09:13:38;;;;;;;;;18.00;16.75;;;;;22.31;54.12;100939.06;5001697;28;45234;-80
2022/09/02 09:16:28;;;;;;;;;18.50;16.00;;;;;22.44;53.58;100931.28;5000104;28;46533;-80
2022/09/02 09:19:15;;;;;;;;;14.75;14.75;;;;;22.52;53.47;100925.53;5003404;28;45320;-79
2022/09/02 09:21:43;;;;;;;;;17.75;15.50;;;;;22.57;54.08;100918.97;5011350;28;45443;-81
2022/09/02 09:24:31;;;;;;;;;18.50;18.00;;;;;22.65;53.75;100922.13;5020206;28;45283;-80
2022/09/02 09:27:01;;;;;;;;;14.75;14.00;;;;;22.73;53.45;100921.75;5017393;28;47302;-81
2022/09/02 09:29:31;;;;;;;;;18.75;14.50;;;;;22.79;53.24;100902.63;5000754;28;45510;-81
2022/09/02 09:31:59;;;;;;;;;13.75;13.75;;;;;22.85;52.33;100904.13;5001040;28;45195;-80
2022/09/02 09:34:55;;;;;;;;;14.25;14.25;;;;;22.90;53.19;100900.25;5001319;28;45443;-80
2022/09/02 09:37:43;;;;;;;;;21.50;19.50;;;;;22.96;52.95;100914.31;5001288;28;45676;-79
2022/09/02 09:40:17;;;;;;;;;17.75;16.25;;;;;23.05;52.66;100913.88;4999176;28;45266;-80
2022/09/02 09:42:44;;;;;;;;;17.50;15.25;;;;;23.14;52.33;100907.13;5000913;28;45254;-80
2022/09/02 09:45:34;;;;;;;;;16.75;16.75;;;;;23.26;52.32;100893.06;5000552;28;45217;-81
2022/09/02 09:48:18;;;;;;;;;17.00;16.00;;;;;23.47;52.04;100891.88;5014697;28;45540;-81
2022/09/02 09:50:45;;;;;;;;;14.50;14.00;;;;;23.61;51.71;100892.94;5009717;28;45411;-80
2022/09/02 09:53:29;;;;;;;;;16.00;14.25;;;;;23.79;50.94;100891.94;5000427;28;45396;-80
2022/09/02 09:56:00;;;;;;;;;15.25;15.25;;;;;23.94;50.47;100888.34;5018690;28;45441;-81
2022/09/02 09:58:41;;;;;;;;;18.75;16.00;;;;;24.06;50.62;100878.72;5018447;28;47461;-81
2022/09/02 10:01:28;;;;;;;;;19.25;15.25;;;;;24.19;50.26;100887.81;5019894;28;45430;-80
2022/09/02 10:04:09;;;;;;;;;12.75;11.50;;;;;24.30;50.40;100887.19;5018568;28;45309;-80
2022/09/02 10:06:38;;;;;;;;;18.00;17.25;;;;;24.36;49.61;100894.03;5020540;28;45366;-81
2022/09/02 10:09:18;;;;;;;;;20.75;20.00;;;;;24.47;49.05;100879.97;5017114;28;46401;-80
2022/09/02 10:12:04;;;;;;;;;15.00;15.00;;;;;24.50;48.84;100886.03;4998716;28;45498;-81
2022/09/02 10:14:38;;;;;;;;;13.00;13.00;;;;;24.56;48.75;100874.88;5005502;28;45390;-82
2022/09/02 10:17:16;;;;;;;;;19.25;18.00;;;;;24.65;48.52;100884.25;5017297;28;45434;-81
2022/09/02 10:20:02;;;;;;;;;19.25;18.25;;;;;24.74;48.36;100885.50;4998306;28;47078;-80
2022/09/02 10:22:48;;;;;;;;;14.25;14.25;;;;;24.84;48.11;100873.22;4998336;28;45345;-81
2022/09/02 10:25:49;;;;;;;;;19.25;18.25;;;;;24.89;47.57;100865.72;4998048;28;45249;-81
2022/09/02 10:28:22;;;;;;;;;17.75;17.00;;;;;24.95;47.46;100859.94;4995945;28;45306;-82
2022/09/02 10:31:03;;;;;;;;;16.00;15.75;;;;;24.96;47.46;100864.38;5014149;28;46504;-82
2022/09/02 10:33:39;;;;;;;;;15.00;15.00;;;;;25.02;47.48;100858.63;5005651;28;45320;-80
2022/09/02 10:36:15;;;;;;;;;21.75;19.50;;;;;25.06;47.06;100859.28;5003433;28;45241;-81
2022/09/02 10:38:46;;;;;;;;;31.25;27.75;;;;;25.09;47.03;100859.94;4998172;28;45277;-82
2022/09/02 10:41:36;;;;;;;;;17.50;17.50;;;;;25.14;47.13;100856.97;5002127;28;46276;-81
2022/09/02 10:44:08;;;;;;;;;19.25;17.75;;;;;25.18;46.86;100854.97;5000284;28;45494;-82
2022/09/02 10:47:02;;;;;;;;;18.50;17.75;;;;;25.17;46.69;100851.41;5001276;28;45268;-81
2022/09/02 10:49:46;;;;;;;;;19.75;17.75;;;;;25.20;46.68;100856.59;5017671;28;45343;-82
2022/09/02 10:52:40;;;;;;;;;17.25;16.25;;;;;25.23;46.58;100850.16;5017957;28;47123;-82
2022/09/02 10:55:11;;;;;;;;;17.75;17.00;;;;;25.24;46.31;100852.78;5018854;28;45342;-82
2022/09/02 10:57:51;;;;;;;;;18.00;17.00;;;;;25.23;45.80;100844.78;5019370;28;45312;-81
2022/09/02 11:00:22;;;;;;;;;18.00;17.50;;;;;25.20;46.17;100845.81;5019558;28;45398;-82
2022/09/02 11:03:00;;;;;;;;;15.50;15.50;;;;;25.15;46.57;100849.75;5018806;28;46924;-82
2022/09/02 11:05:57;;;;;;;;;25.75;23.00;;;;;25.08;46.34;100847.44;5017629;28;45477;-82
2022/09/02 11:08:32;;;;;;;;;18.00;18.00;;;;;25.00;46.60;100836.28;5018357;28;45328;-82
2022/09/02 11:11:05;;;;;;;;;18.50;16.50;;;;;24.94;47.45;100836.69;5018846;28;45279;-82
2022/09/02 11:13:54;;;;;;;;;20.50;19.75;;;;;24.91;47.85;100836.84;5018846;28;45473;-82
2022/09/02 11:16:31;;;;;;;;;18.50;16.25;;;;;24.85;46.96;100834.53;5006580;28;45453;-81
2022/09/02 11:19:37;;;;;;;;;21.75;21.75;;;;;24.81;47.67;100835.72;5017889;28;45285;-81
2022/09/02 11:22:18;;;;;;;;;20.50;18.75;;;;;24.80;48.02;100832.13;5017248;28;45416;-82
2022/09/02 11:24:54;;;;;;;;;16.50;16.25;;;;;24.82;48.36;100838.28;5018956;28;45517;-82
2022/09/02 11:27:32;;;;;;;;;21.25;20.50;;;;;24.82;48.16;100829.34;5018484;28;45230;-82